sensor_id;sensor_type;location;lat;lon;timestamp;temperature;humidity
15298;DHT22;7750;48.796;9.026;2023-04-03T03:02:17;7.60;69.20
15298;DHT22;7750;48.796;9.026;2023-04-03T03:07:27;7.60;69.10
15298;DHT22;7750;48.796;9.026;2023-04-03T03:13:19;7.60;68.90
15298;DHT22;7750;48.796;9.026;2023-04-03T03:18:42;7.60;68.80
15298;DHT22;7750;48.796;9.026;2023-04-03T03:24:09;7.50;68.70
15298;DHT22;7750;48.796;9.026;2023-04-03T03:29:40;7.50;68.20
15298;DHT22;7750;48.796;9.026;2023-04-03T03:35:04;7.50;68.00
15298;DHT22;7750;48.796;9.026;2023-04-03T03:40:08;7.50;68.20
15298;DHT22;7750;48.796;9.026;2023-04-03T03:45:13;7.40;67.90
15298;DHT22;7750;48.796;9.026;2023-04-03T03:55:24;7.40;68.00
15298;DHT22;7750;48.796;9.026;2023-04-03T04:30:06;7.40;67.60
15298;DHT22;7750;48.796;9.026;2023-04-03T04:35:41;7.50;67.10
15298;DHT22;7750;48.796;9.026;2023-04-03T04:46:33;7.40;66.90
15298;DHT22;7750;48.796;9.026;2023-04-03T05:42:53;7.10;65.70
15298;DHT22;7750;48.796;9.026;2023-04-03T06:36:31;7.50;66.30
15298;DHT22;7750;48.796;9.026;2023-04-03T06:41:46;7.60;65.90
15298;DHT22;7750;48.796;9.026;2023-04-03T06:57:36;7.60;65.80
15298;DHT22;7750;48.796;9.026;2023-04-03T07:57:26;7.90;66.00
15298;DHT22;7750;48.796;9.026;2023-04-03T08:08:40;8.00;65.30
15298;DHT22;7750;48.796;9.026;2023-04-03T08:25:56;8.20;65.20
15298;DHT22;7750;48.796;9.026;2023-04-03T08:54:50;8.60;65.10
15298;DHT22;7750;48.796;9.026;2023-04-03T09:25:46;9.30;64.10
15298;DHT22;7750;48.796;9.026;2023-04-03T09:30:47;9.30;64.00
15298;DHT22;7750;48.796;9.026;2023-04-03T09:35:48;9.30;62.90
15298;DHT22;7750;48.796;9.026;2023-04-03T09:41:17;9.30;63.60
15298;DHT22;7750;48.796;9.026;2023-04-03T09:46:39;9.40;62.40
15298;DHT22;7750;48.796;9.026;2023-04-03T09:51:40;9.40;62.60
15298;DHT22;7750;48.796;9.026;2023-04-03T09:56:41;9.40;62.40
15298;DHT22;7750;48.796;9.026;2023-04-03T10:02:21;9.40;62.20
15298;DHT22;7750;48.796;9.026;2023-04-03T10:07:37;9.40;62.40
15298;DHT22;7750;48.796;9.026;2023-04-03T10:12:38;9.40;62.20
15298;DHT22;7750;48.796;9.026;2023-04-03T10:17:52;9.40;61.70
15298;DHT22;7750;48.796;9.026;2023-04-03T10:33:30;9.40;60.40
15298;DHT22;7750;48.796;9.026;2023-04-03T10:49:53;9.50;60.00
15298;DHT22;7750;48.796;9.026;2023-04-03T11:00:52;9.60;59.40
15298;DHT22;7750;48.796;9.026;2023-04-03T11:05:55;9.60;59.50
15298;DHT22;7750;48.796;9.026;2023-04-03T11:11:05;9.60;59.80
15298;DHT22;7750;48.796;9.026;2023-04-03T11:16:07;9.70;59.50
15298;DHT22;7750;48.796;9.026;2023-04-03T11:26:22;9.60;58.00
15298;DHT22;7750;48.796;9.026;2023-04-03T11:36:55;9.50;58.50
15298;DHT22;7750;48.796;9.026;2023-04-03T11:42:13;9.50;58.10
15298;DHT22;7750;48.796;9.026;2023-04-03T11:58:23;9.60;58.30
15298;DHT22;7750;48.796;9.026;2023-04-03T12:08:36;9.60;57.80
15298;DHT22;7750;48.796;9.026;2023-04-03T12:19:02;9.60;57.40
15298;DHT22;7750;48.796;9.026;2023-04-03T12:39:55;10.00;56.50
15298;DHT22;7750;48.796;9.026;2023-04-03T12:45:19;10.00;56.50
15298;DHT22;7750;48.796;9.026;2023-04-03T12:50:30;10.10;56.50
15298;DHT22;7750;48.796;9.026;2023-04-03T12:55:31;10.20;56.80
15298;DHT22;7750;48.796;9.026;2023-04-03T13:00:35;10.30;56.90
15298;DHT22;7750;48.796;9.026;2023-04-03T13:05:39;10.40;56.30
15298;DHT22;7750;48.796;9.026;2023-04-03T13:15:50;10.40;55.30
15298;DHT22;7750;48.796;9.026;2023-04-03T13:20:52;10.40;55.80
15298;DHT22;7750;48.796;9.026;2023-04-03T13:25:53;10.40;55.50
15298;DHT22;7750;48.796;9.026;2023-04-03T13:31:26;10.40;55.30
15298;DHT22;7750;48.796;9.026;2023-04-03T13:36:40;10.40;54.70
15298;DHT22;7750;48.796;9.026;2023-04-03T13:47:24;10.50;55.50
15298;DHT22;7750;48.796;9.026;2023-04-03T14:05:20;10.70;54.80
15298;DHT22;7750;48.796;9.026;2023-04-03T14:35:28;10.80;53.70
15298;DHT22;7750;48.796;9.026;2023-04-03T14:40:29;10.80;53.30
15298;DHT22;7750;48.796;9.026;2023-04-03T14:45:30;10.80;53.50
15298;DHT22;7750;48.796;9.026;2023-04-03T14:50:31;10.80;53.70
15298;DHT22;7750;48.796;9.026;2023-04-03T14:55:31;10.70;53.50
15298;DHT22;7750;48.796;9.026;2023-04-03T15:00:32;10.70;53.10
15298;DHT22;7750;48.796;9.026;2023-04-03T15:05:35;10.70;52.70
15298;DHT22;7750;48.796;9.026;2023-04-03T15:10:35;10.70;52.20
15298;DHT22;7750;48.796;9.026;2023-04-03T15:15:36;10.70;53.20
15298;DHT22;7750;48.796;9.026;2023-04-03T15:20:38;10.90;53.00
15298;DHT22;7750;48.796;9.026;2023-04-03T15:25:39;11.10;52.20
15298;DHT22;7750;48.796;9.026;2023-04-03T15:30:40;11.20;52.00
15298;DHT22;7750;48.796;9.026;2023-04-03T15:35:41;11.40;52.50
15298;DHT22;7750;48.796;9.026;2023-04-03T15:40:48;11.50;52.10
15298;DHT22;7750;48.796;9.026;2023-04-03T15:45:49;11.50;52.00
15298;DHT22;7750;48.796;9.026;2023-04-03T15:50:51;11.60;51.80
15298;DHT22;7750;48.796;9.026;2023-04-03T15:55:52;11.70;52.00
15298;DHT22;7750;48.796;9.026;2023-04-03T16:00:55;11.70;51.10
15298;DHT22;7750;48.796;9.026;2023-04-03T16:05:58;11.60;50.70
15298;DHT22;7750;48.796;9.026;2023-04-03T16:11:00;11.40;50.40
15298;DHT22;7750;48.796;9.026;2023-04-03T16:16:02;11.20;50.70
15298;DHT22;7750;48.796;9.026;2023-04-03T16:21:03;11.10;51.30
15298;DHT22;7750;48.796;9.026;2023-04-03T16:26:06;11.20;51.20
15298;DHT22;7750;48.796;9.026;2023-04-03T16:31:07;11.30;51.10
15298;DHT22;7750;48.796;9.026;2023-04-03T16:36:08;11.40;51.40
15298;DHT22;7750;48.796;9.026;2023-04-03T16:41:09;11.50;51.50
15298;DHT22;7750;48.796;9.026;2023-04-03T16:46:15;11.60;50.20
15298;DHT22;7750;48.796;9.026;2023-04-03T16:51:16;11.60;49.90
15298;DHT22;7750;48.796;9.026;2023-04-03T16:56:19;11.50;50.00
15298;DHT22;7750;48.796;9.026;2023-04-03T17:01:22;11.30;49.70
15298;DHT22;7750;48.796;9.026;2023-04-03T17:06:28;11.10;50.30
15298;DHT22;7750;48.796;9.026;2023-04-03T17:11:33;10.90;50.40
15298;DHT22;7750;48.796;9.026;2023-04-03T17:16:35;10.70;50.00
15298;DHT22;7750;48.796;9.026;2023-04-03T17:21:46;10.50;50.40
15298;DHT22;7750;48.796;9.026;2023-04-03T17:26:53;10.40;50.60
15298;DHT22;7750;48.796;9.026;2023-04-03T17:31:53;10.30;50.90
15298;DHT22;7750;48.796;9.026;2023-04-03T17:36:54;10.20;50.90
15298;DHT22;7750;48.796;9.026;2023-04-03T17:41:58;10.20;51.20
15298;DHT22;7750;48.796;9.026;2023-04-03T17:47:00;10.10;51.40
15298;DHT22;7750;48.796;9.026;2023-04-03T17:52:02;10.10;51.50
15298;DHT22;7750;48.796;9.026;2023-04-03T17:57:03;10.00;51.60
15298;DHT22;7750;48.796;9.026;2023-04-03T18:02:07;10.00;51.60
15298;DHT22;7750;48.796;9.026;2023-04-03T18:07:08;9.90;52.10
15298;DHT22;7750;48.796;9.026;2023-04-03T18:12:09;9.90;52.10
15298;DHT22;7750;48.796;9.026;2023-04-03T18:17:10;9.80;52.30
15298;DHT22;7750;48.796;9.026;2023-04-03T18:22:16;9.70;51.90
15298;DHT22;7750;48.796;9.026;2023-04-03T19:29:51;8.90;52.60
15298;DHT22;7750;48.796;9.026;2023-04-03T19:35:12;8.80;52.90
15298;DHT22;7750;48.796;9.026;2023-04-03T19:40:13;8.70;52.70
15298;DHT22;7750;48.796;9.026;2023-04-03T19:45:23;8.50;53.00
15298;DHT22;7750;48.796;9.026;2023-04-03T19:50:29;8.50;53.30
15298;DHT22;7750;48.796;9.026;2023-04-03T19:55:33;8.40;53.50
15298;DHT22;7750;48.796;9.026;2023-04-03T20:00:40;8.30;53.40
15298;DHT22;7750;48.796;9.026;2023-04-03T22:51:11;6.00;54.10
15298;DHT22;7750;48.796;9.026;2023-04-03T22:56:12;5.80;54.10
15298;DHT22;7750;48.796;9.026;2023-04-03T23:01:13;5.70;54.20
